Time;durP1;ratioP1;P1;durP2;ratioP2;P2;SDS_P1;SDS_P2;PMS_P1;PMS_P2;Temp;Humidity;BMP_temperature;BMP_pressure;BME280_temperature;BME280_humidity;BME280_pressure;Samples;Min_cycle;Max_cycle;Signal;HPM_P1;HPM_P2
2022/09/27 00:01:18;;;;;;;0.70;0.60;;;8.00;99.90;;;;;;5065998;23;20199;-70
2022/09/27 00:03:18;;;;;;;0.80;0.50;;;8.00;99.90;;;;;;5066588;23;20181;-70
2022/09/27 00:05:19;;;;;;;2.60;0.60;;;8.10;99.90;;;;;;5067477;23;20161;-70
2022/09/27 00:07:19;;;;;;;0.63;0.63;;;8.10;99.90;;;;;;5041043;23;20225;-70
2022/09/27 00:09:20;;;;;;;0.60;0.60;;;8.10;99.90;;;;;;5066664;23;20221;-70
2022/09/27 00:11:34;;;;;;;0.90;0.77;;;8.00;99.90;;;;;;5066041;23;20173;-70
2022/09/27 00:13:34;;;;;;;0.50;0.50;;;8.00;99.90;;;;;;5042077;23;20246;-70
2022/09/27 00:15:35;;;;;;;1.63;0.87;;;8.10;99.90;;;;;;5068155;23;20169;-70
2022/09/27 00:17:37;;;;;;;2.00;1.90;;;8.10;99.90;;;;;;5067935;23;20195;-72
2022/09/27 00:19:38;;;;;;;0.50;0.50;;;8.10;99.90;;;;;;5068236;23;20218;-69
2022/09/27 00:21:39;;;;;;;1.73;0.50;;;8.10;99.90;;;;;;5067455;23;20161;-70
2022/09/27 00:23:40;;;;;;;0.73;0.53;;;8.10;99.90;;;;;;5068183;23;20163;-70
2022/09/27 00:25:40;;;;;;;1.53;1.43;;;8.20;99.90;;;;;;5068382;23;20169;-70
2022/09/27 00:27:41;;;;;;;0.50;0.50;;;8.20;99.90;;;;;;5068201;23;20162;-70
2022/09/27 00:29:42;;;;;;;0.90;0.50;;;8.20;99.90;;;;;;5042197;23;20167;-70
2022/09/27 00:31:43;;;;;;;0.50;0.50;;;8.20;99.90;;;;;;5067170;23;20164;-69
2022/09/27 00:33:43;;;;;;;0.60;0.57;;;8.20;99.90;;;;;;5068162;23;20185;-70
2022/09/27 00:35:44;;;;;;;1.07;0.50;;;8.20;99.90;;;;;;5068072;23;20174;-70
2022/09/27 00:37:47;;;;;;;0.50;0.50;;;8.20;99.90;;;;;;5068289;23;20196;-70
2022/09/27 00:39:48;;;;;;;0.83;0.73;;;8.20;99.90;;;;;;5068071;23;20178;-69
2022/09/27 00:41:49;;;;;;;0.63;0.60;;;8.20;99.90;;;;;;5067339;23;20507;-69
2022/09/27 00:44:20;;;;;;;0.50;0.50;;;8.20;99.90;;;;;;5068361;23;20660;-69
2022/09/27 00:46:30;;;;;;;0.40;0.40;;;8.20;99.90;;;;;;5066994;23;20277;-70
2022/09/27 00:48:34;;;;;;;0.40;0.40;;;8.20;99.90;;;;;;5068526;23;20643;-70
2022/09/27 00:50:38;;;;;;;0.67;0.67;;;8.20;99.90;;;;;;5041606;23;20174;-71
2022/09/27 00:52:54;;;;;;;0.40;0.40;;;8.20;99.90;;;;;;5068055;23;20212;-69
2022/09/27 00:55:03;;;;;;;0.50;0.50;;;8.20;99.90;;;;;;5068230;23;20163;-69
2022/09/27 00:57:04;;;;;;;0.83;0.50;;;8.30;99.90;;;;;;5068100;23;20193;-69
2022/09/27 00:59:17;;;;;;;0.50;0.50;;;8.30;99.90;;;;;;5068220;23;20189;-69
2022/09/27 01:01:18;;;;;;;0.40;0.40;;;8.30;99.90;;;;;;5067463;23;20718;-69
2022/09/27 01:03:44;;;;;;;0.60;0.50;;;8.30;99.90;;;;;;5068340;23;20180;-70
2022/09/27 01:05:45;;;;;;;0.50;0.50;;;8.30;99.90;;;;;;5047079;23;20168;-70
2022/09/27 01:07:45;;;;;;;0.47;0.47;;;8.30;99.90;;;;;;5068220;23;20166;-70
2022/09/27 01:09:47;;;;;;;1.13;0.50;;;8.20;99.90;;;;;;5068421;23;20168;-70
2022/09/27 01:11:50;;;;;;;1.27;1.27;;;8.20;99.90;;;;;;5067284;23;20170;-70
2022/09/27 01:14:27;;;;;;;0.50;0.50;;;8.20;99.90;;;;;;5068373;23;20172;-71
2022/09/27 01:16:40;;;;;;;2.43;0.50;;;8.20;99.90;;;;;;5068432;23;20147;-70
2022/09/27 01:19:09;;;;;;;0.40;0.40;;;8.20;99.90;;;;;;5068154;23;20217;-70
2022/09/27 01:21:56;;;;;;;0.40;0.40;;;8.30;99.90;;;;;;5066976;23;20154;-70
2022/09/27 01:24:25;;;;;;;0.60;0.60;;;8.30;99.90;;;;;;5067861;23;20150;-70
2022/09/27 01:26:47;;;;;;;1.27;0.50;;;8.30;99.90;;;;;;5067187;23;20175;-70
2022/09/27 01:29:11;;;;;;;0.40;0.40;;;8.30;99.90;;;;;;5067878;23;20149;-69
2022/09/27 01:31:23;;;;;;;0.50;0.50;;;8.30;99.90;;;;;;5066866;23;20487;-69
2022/09/27 01:33:47;;;;;;;0.50;0.50;;;8.30;99.90;;;;;;5067876;23;20189;-70
2022/09/27 01:35:47;;;;;;;1.17;0.40;;;8.30;99.90;;;;;;5068013;23;20172;-70
2022/09/27 01:38:11;;;;;;;0.40;0.40;;;8.30;99.90;;;;;;5067655;23;20177;-70
2022/09/27 01:40:28;;;;;;;0.83;0.73;;;8.20;99.90;;;;;;5066872;23;20178;-70
2022/09/27 01:42:33;;;;;;;0.40;0.40;;;8.20;99.90;;;;;;5042071;23;20276;-70
2022/09/27 01:45:08;;;;;;;1.70;0.50;;;8.10;99.90;;;;;;5067595;23;20153;-70
2022/09/27 01:47:16;;;;;;;2.97;0.50;;;8.10;99.90;;;;;;5067624;23;20151;-70
2022/09/27 01:49:25;;;;;;;0.80;0.80;;;7.90;99.90;;;;;;5067469;23;20185;-69
2022/09/27 01:51:36;;;;;;;0.60;0.60;;;7.80;99.90;;;;;;5066966;23;20379;-70
2022/09/27 01:53:46;;;;;;;0.97;0.97;;;7.80;99.90;;;;;;5068169;23;20199;-70
2022/09/27 01:55:50;;;;;;;1.10;0.97;;;7.60;99.90;;;;;;5069323;23;20380;-70
2022/09/27 01:58:01;;;;;;;1.33;0.53;;;7.60;99.90;;;;;;5043216;23;20404;-71
2022/09/27 02:00:07;;;;;;;1.30;1.20;;;7.70;99.90;;;;;;5068705;23;20419;-70
2022/09/27 02:02:08;;;;;;;0.60;0.60;;;7.70;99.90;;;;;;5041679;23;20246;-71
2022/09/27 02:04:12;;;;;;;2.23;1.00;;;7.70;99.90;;;;;;5068671;23;20388;-70
2022/09/27 02:06:20;;;;;;;1.87;0.87;;;7.60;99.90;;;;;;5068258;23;20169;-70
2022/09/27 02:08:57;;;;;;;1.03;1.03;;;7.60;99.90;;;;;;5067917;23;20240;-70
2022/09/27 02:11:01;;;;;;;1.80;0.87;;;7.60;99.90;;;;;;5066413;23;20411;-71
2022/09/27 02:13:09;;;;;;;1.50;0.73;;;7.60;99.90;;;;;;5041779;23;20430;-70
2022/09/27 02:15:14;;;;;;;2.50;0.77;;;7.60;99.90;;;;;;5066994;23;20833;-70
2022/09/27 02:18:08;;;;;;;1.07;0.80;;;7.50;99.90;;;;;;5041157;23;20195;-70
2022/09/27 02:20:18;;;;;;;2.77;1.10;;;7.50;99.90;;;;;;4945673;24;20206;-71
2022/09/27 02:22:34;;;;;;;2.30;0.90;;;7.40;99.90;;;;;;5018532;23;20188;-71
2022/09/27 02:24:57;;;;;;;1.30;1.20;;;7.20;99.90;;;;;;5066477;23;20390;-70
2022/09/27 02:27:12;;;;;;;1.83;1.07;;;7.20;99.90;;;;;;5066835;23;20380;-71
2022/09/27 02:29:29;;;;;;;0.80;0.80;;;7.30;99.90;;;;;;5067275;23;20378;-70
2022/09/27 02:31:30;;;;;;;3.07;1.17;;;7.30;99.90;;;;;;5066198;23;20891;-71
2022/09/27 02:33:57;;;;;;;1.10;1.00;;;7.40;99.90;;;;;;5066326;23;20430;-70
2022/09/27 02:35:58;;;;;;;1.00;0.90;;;7.30;99.90;;;;;;5011641;23;20643;-70
2022/09/27 02:37:59;;;;;;;2.70;1.83;;;7.30;99.90;;;;;;5067871;23;20419;-70
2022/09/27 02:40:00;;;;;;;3.87;1.23;;;7.20;99.90;;;;;;5066438;23;20293;-70
2022/09/27 02:42:01;;;;;;;3.43;1.30;;;7.20;99.90;;;;;;5040160;23;20427;-70
2022/09/27 02:44:08;;;;;;;2.60;1.23;;;7.20;99.90;;;;;;5066921;23;20571;-70
2022/09/27 02:46:18;;;;;;;1.30;1.20;;;7.30;99.90;;;;;;5067327;23;20369;-70
2022/09/27 02:48:34;;;;;;;2.27;1.20;;;7.30;99.90;;;;;;5066811;23;20383;-70
2022/09/27 02:51:13;;;;;;;2.20;1.50;;;7.20;99.90;;;;;;5040154;23;20399;-70
2022/09/27 02:53:28;;;;;;;3.27;1.40;;;7.10;99.90;;;;;;5065798;23;20431;-70
2022/09/27 02:55:54;;;;;;;3.97;1.70;;;7.20;99.90;;;;;;5067104;23;20438;-70
2022/09/27 02:58:38;;;;;;;6.13;1.60;;;7.20;99.90;;;;;;5066794;23;20382;-70
2022/09/27 03:00:58;;;;;;;5.63;1.80;;;7.20;99.90;;;;;;5040145;23;20521;-70
2022/09/27 03:03:02;;;;;;;4.50;2.50;;;7.30;99.90;;;;;;5067105;23;20505;-70
2022/09/27 03:05:08;;;;;;;6.60;2.40;;;7.20;99.90;;;;;;5067006;23;20386;-71
2022/09/27 03:07:09;;;;;;;5.13;2.10;;;7.20;99.90;;;;;;5040830;23;20431;-69
2022/09/27 03:09:24;;;;;;;6.00;2.40;;;7.10;99.90;;;;;;5066670;23;20398;-70
2022/09/27 03:11:24;;;;;;;7.70;2.20;;;7.30;99.90;;;;;;5065979;23;20379;-70
2022/09/27 03:13:25;;;;;;;6.50;2.33;;;7.40;99.90;;;;;;5066572;23;20411;-70
2022/09/27 03:15:26;;;;;;;5.73;2.60;;;7.30;99.90;;;;;;5066592;23;20237;-69
2022/09/27 03:17:27;;;;;;;5.90;2.40;;;7.20;99.90;;;;;;5066965;23;20396;-70
2022/09/27 03:19:27;;;;;;;7.83;2.43;;;7.20;99.90;;;;;;5066704;23;20273;-70
2022/09/27 03:21:28;;;;;;;4.53;2.03;;;7.20;99.90;;;;;;5065851;23;20166;-69
2022/09/27 03:23:28;;;;;;;6.63;2.43;;;7.20;99.90;;;;;;5066627;23;20812;-69
2022/09/27 03:25:29;;;;;;;7.23;2.40;;;7.10;99.90;;;;;;5066702;23;20174;-71
2022/09/27 03:27:29;;;;;;;6.17;3.10;;;7.10;99.90;;;;;;5066608;23;20160;-69
2022/09/27 03:29:30;;;;;;;5.93;2.20;;;7.10;99.90;;;;;;5040821;23;20254;-69
2022/09/27 03:31:31;;;;;;;3.53;2.03;;;7.00;99.90;;;;;;5065838;23;20195;-70
2022/09/27 03:33:32;;;;;;;4.77;1.57;;;7.10;99.90;;;;;;5066317;23;20869;-69
2022/09/27 03:35:32;;;;;;;6.17;1.87;;;7.10;99.90;;;;;;5066756;23;20167;-69
2022/09/27 03:37:33;;;;;;;2.80;1.80;;;7.10;99.90;;;;;;5040796;23;20454;-70
2022/09/27 03:39:34;;;;;;;3.37;1.87;;;7.10;99.90;;;;;;5066212;23;20178;-70
2022/09/27 03:41:34;;;;;;;6.13;2.30;;;7.10;99.90;;;;;;5065484;23;20174;-70
2022/09/27 03:43:35;;;;;;;4.20;1.80;;;7.10;99.90;;;;;;5066579;23;20524;-69
2022/09/27 03:45:35;;;;;;;5.90;1.90;;;7.10;99.90;;;;;;5066733;23;20622;-71
2022/09/27 03:47:40;;;;;;;2.93;1.90;;;7.10;99.90;;;;;;5065908;23;20682;-69
2022/09/27 03:49:40;;;;;;;2.07;1.87;;;7.10;99.90;;;;;;5066796;23;20176;-69
2022/09/27 03:51:41;;;;;;;3.40;1.73;;;7.30;99.90;;;;;;5065667;23;20787;-69
2022/09/27 03:53:42;;;;;;;3.40;1.80;;;7.30;99.90;;;;;;5066944;23;20627;-69
2022/09/27 03:55:44;;;;;;;3.00;1.70;;;7.20;99.90;;;;;;5066564;23;20167;-70
2022/09/27 03:57:45;;;;;;;3.57;1.20;;;7.20;99.90;;;;;;5016797;23;20180;-70
2022/09/27 03:59:46;;;;;;;3.73;1.77;;;7.10;99.90;;;;;;5066895;23;20424;-71
2022/09/27 04:01:47;;;;;;;4.90;1.63;;;7.10;99.90;;;;;;5065945;23;20425;-70
2022/09/27 04:03:47;;;;;;;5.00;1.17;;;7.10;99.90;;;;;;5066721;23;20166;-70
2022/09/27 04:05:48;;;;;;;2.93;1.30;;;7.10;99.90;;;;;;5066700;23;20154;-71
2022/09/27 04:07:49;;;;;;;2.90;1.20;;;7.20;99.90;;;;;;5066642;23;20166;-70
2022/09/27 04:09:49;;;;;;;1.20;1.10;;;7.00;99.90;;;;;;5066811;23;20169;-70
2022/09/27 04:11:50;;;;;;;1.90;1.07;;;6.90;99.90;;;;;;5065993;23;20189;-69
2022/09/27 04:13:50;;;;;;;3.40;1.00;;;6.90;99.90;;;;;;5066514;23;20170;-70
2022/09/27 04:15:51;;;;;;;2.30;1.10;;;6.90;99.90;;;;;;5040751;23;20182;-69
2022/09/27 04:17:51;;;;;;;1.57;1.10;;;6.80;99.90;;;;;;5040756;23;20175;-70
2022/09/27 04:19:52;;;;;;;2.03;0.80;;;6.80;99.90;;;;;;5066274;23;20238;-68
2022/09/27 04:21:52;;;;;;;4.20;1.20;;;6.80;99.90;;;;;;5040275;23;20246;-70
2022/09/27 04:23:53;;;;;;;2.30;0.97;;;6.80;99.90;;;;;;5040552;23;20167;-69
2022/09/27 04:25:54;;;;;;;3.23;1.47;;;6.80;99.90;;;;;;5066242;23;20187;-69
2022/09/27 04:27:54;;;;;;;2.43;0.90;;;6.90;99.90;;;;;;5040726;23;20202;-70
2022/09/27 04:29:55;;;;;;;1.53;1.13;;;7.00;99.90;;;;;;5065915;23;20201;-70
2022/09/27 04:31:55;;;;;;;1.20;0.90;;;6.90;99.90;;;;;;5065670;23;20166;-71
2022/09/27 04:33:57;;;;;;;4.70;1.30;;;7.00;99.90;;;;;;5066320;23;20172;-69
2022/09/27 04:38:21;;;;;;;2.30;0.70;;;6.90;99.90;;;;;;5066303;23;20361;-70
2022/09/27 04:40:22;;;;;;;1.77;0.70;;;6.80;99.90;;;;;;5065741;23;20451;-74
2022/09/27 04:42:23;;;;;;;0.50;0.50;;;6.70;99.90;;;;;;5066484;23;20410;-72
2022/09/27 04:44:23;;;;;;;0.60;0.60;;;6.50;99.90;;;;;;5066184;23;20448;-70
2022/09/27 04:46:24;;;;;;;0.53;0.53;;;6.40;99.90;;;;;;5066177;23;20186;-70
2022/09/27 04:48:25;;;;;;;0.63;0.63;;;6.40;99.90;;;;;;5066327;23;20516;-70
2022/09/27 04:50:25;;;;;;;1.63;0.70;;;6.40;99.90;;;;;;5039453;23;20159;-71
2022/09/27 04:52:26;;;;;;;0.53;0.53;;;6.40;99.90;;;;;;5040121;23;20449;-71
2022/09/27 04:54:26;;;;;;;0.60;0.60;;;6.20;99.90;;;;;;5065940;23;20170;-70
2022/09/27 04:56:27;;;;;;;0.67;0.67;;;6.20;99.90;;;;;;5041048;23;20198;-71
2022/09/27 04:58:28;;;;;;;0.50;0.50;;;6.00;99.90;;;;;;5041904;23;20253;-69
2022/09/27 05:00:29;;;;;;;1.50;0.70;;;6.10;99.90;;;;;;5067736;23;20182;-71
2022/09/27 05:02:30;;;;;;;0.80;0.80;;;6.10;99.90;;;;;;5068642;23;20484;-70
2022/09/27 05:04:30;;;;;;;1.03;0.73;;;6.20;99.90;;;;;;5042917;23;20174;-69
2022/09/27 05:06:31;;;;;;;3.03;0.80;;;6.10;99.90;;;;;;5068690;23;20218;-71
2022/09/27 05:08:32;;;;;;;0.80;0.70;;;6.20;99.90;;;;;;5068468;23;20194;-71
2022/09/27 05:10:32;;;;;;;1.07;0.80;;;6.20;99.90;;;;;;5067921;23;20165;-70
2022/09/27 05:12:33;;;;;;;1.20;0.80;;;6.30;99.90;;;;;;5042437;23;20318;-70
2022/09/27 05:14:34;;;;;;;2.50;0.83;;;6.40;99.90;;;;;;5042152;23;20167;-71
2022/09/27 05:16:37;;;;;;;2.70;1.50;;;6.40;99.90;;;;;;5068160;23;20170;-70
2022/09/27 05:18:38;;;;;;;2.07;0.93;;;6.50;99.90;;;;;;5068323;23;20608;-70
2022/09/27 05:20:39;;;;;;;1.47;1.17;;;6.50;99.90;;;;;;5067690;23;20485;-70
2022/09/27 05:22:39;;;;;;;4.27;1.00;;;6.40;99.90;;;;;;5068377;23;20218;-71
2022/09/27 05:24:40;;;;;;;1.67;1.33;;;6.40;99.90;;;;;;5068077;23;20154;-70
2022/09/27 05:26:40;;;;;;;3.70;1.10;;;6.50;99.90;;;;;;5068139;23;20166;-70
2022/09/27 05:28:42;;;;;;;3.00;1.73;;;6.50;99.90;;;;;;5042078;23;20190;-69
2022/09/27 05:30:43;;;;;;;2.00;1.27;;;6.40;99.90;;;;;;5068039;23;20550;-69
2022/09/27 05:32:46;;;;;;;3.00;1.50;;;6.40;99.90;;;;;;5068260;23;20429;-69
2022/09/27 05:34:48;;;;;;;3.17;1.17;;;6.50;99.90;;;;;;5067751;23;20225;-69
2022/09/27 05:36:49;;;;;;;2.10;1.10;;;6.60;99.90;;;;;;5067086;23;20394;-69
2022/09/27 05:38:49;;;;;;;1.20;1.10;;;6.50;99.90;;;;;;5066846;23;20395;-69
2022/09/27 05:40:50;;;;;;;2.90;1.20;;;6.40;99.90;;;;;;5066303;23;20433;-71
2022/09/27 05:42:52;;;;;;;2.47;1.07;;;6.50;99.90;;;;;;5067179;23;20178;-70
2022/09/27 05:44:52;;;;;;;0.80;0.80;;;6.40;99.90;;;;;;5066931;23;20162;-71
2022/09/27 05:46:53;;;;;;;1.13;0.90;;;6.30;99.90;;;;;;5066795;23;20401;-70
2022/09/27 05:48:53;;;;;;;0.83;0.80;;;6.30;99.90;;;;;;5066845;23;20667;-70
2022/09/27 05:50:54;;;;;;;1.47;0.87;;;6.40;99.90;;;;;;5065996;23;20158;-70
2022/09/27 05:52:54;;;;;;;0.73;0.73;;;6.40;99.90;;;;;;5066577;23;20182;-70
2022/09/27 05:54:55;;;;;;;4.43;1.03;;;6.40;99.90;;;;;;5066870;23;20249;-70
2022/09/27 05:56:59;;;;;;;1.00;1.00;;;6.30;99.90;;;;;;5067029;23;20237;-71
2022/09/27 05:59:00;;;;;;;0.80;0.80;;;6.20;99.90;;;;;;5066796;23;20167;-70
2022/09/27 06:01:00;;;;;;;0.70;0.70;;;6.10;99.90;;;;;;5066092;23;20418;-70
2022/09/27 06:03:04;;;;;;;0.70;0.70;;;6.10;99.90;;;;;;5066675;23;20537;-71
2022/09/27 06:05:05;;;;;;;1.13;0.97;;;6.10;99.90;;;;;;5066803;23;20154;-71
2022/09/27 06:07:06;;;;;;;3.03;0.63;;;6.10;99.90;;;;;;5066817;23;20387;-70
2022/09/27 06:09:13;;;;;;;1.33;0.60;;;6.10;99.90;;;;;;5066550;23;20875;-70
2022/09/27 06:11:13;;;;;;;1.80;0.53;;;6.00;99.90;;;;;;5065411;23;20208;-70
2022/09/27 06:13:15;;;;;;;0.57;0.57;;;5.90;99.90;;;;;;5066660;23;21127;-71
2022/09/27 06:15:16;;;;;;;0.30;0.30;;;5.80;99.90;;;;;;5066502;23;20735;-70
2022/09/27 06:17:16;;;;;;;0.30;0.30;;;5.80;99.90;;;;;;5066427;23;20389;-70
2022/09/27 06:19:17;;;;;;;0.87;0.77;;;5.90;99.90;;;;;;5066382;23;20518;-71
2022/09/27 06:21:17;;;;;;;0.43;0.43;;;5.90;99.90;;;;;;5065496;23;20493;-70
2022/09/27 06:23:21;;;;;;;0.40;0.40;;;5.90;99.90;;;;;;5066247;23;20178;-70
2022/09/27 06:25:21;;;;;;;0.50;0.50;;;6.00;99.90;;;;;;5066459;23;20630;-70
2022/09/27 06:27:22;;;;;;;0.50;0.50;;;6.10;99.90;;;;;;5066391;23;20414;-70
2022/09/27 06:29:23;;;;;;;1.23;0.50;;;6.20;99.90;;;;;;5066266;23;20165;-69
2022/09/27 06:31:23;;;;;;;1.17;0.70;;;6.30;99.90;;;;;;5065642;23;20607;-71
2022/09/27 06:33:24;;;;;;;0.73;0.67;;;6.30;99.90;;;;;;5066331;23;20194;-69
2022/09/27 06:35:26;;;;;;;0.70;0.70;;;6.40;99.90;;;;;;5066343;23;20170;-69
2022/09/27 06:37:27;;;;;;;0.90;0.80;;;6.40;99.90;;;;;;5066060;23;20437;-71
2022/09/27 06:39:27;;;;;;;1.00;0.90;;;6.50;99.90;;;;;;5066532;23;20426;-71
2022/09/27 06:41:28;;;;;;;0.90;0.80;;;6.60;99.90;;;;;;5065674;23;20182;-69
2022/09/27 06:43:30;;;;;;;1.00;0.90;;;6.60;99.90;;;;;;5066661;23;20179;-69
2022/09/27 06:45:31;;;;;;;1.00;0.90;;;6.50;99.90;;;;;;5066393;23;20146;-70
2022/09/27 06:47:36;;;;;;;3.80;1.10;;;6.60;99.90;;;;;;5066387;23;20383;-70
2022/09/27 06:49:36;;;;;;;0.97;0.90;;;6.70;99.90;;;;;;5066348;23;20446;-71
2022/09/27 06:51:37;;;;;;;1.47;0.90;;;6.70;99.90;;;;;;5065739;23;20405;-70
2022/09/27 06:53:37;;;;;;;1.37;1.00;;;6.90;99.90;;;;;;5066136;23;20270;-72
2022/09/27 06:55:39;;;;;;;1.43;1.20;;;6.90;99.90;;;;;;5066253;23;20577;-71
2022/09/27 07:02:17;;;;;;;1.53;1.27;;;6.80;99.90;;;;;;5065926;23;20405;-69
2022/09/27 07:04:18;;;;;;;2.83;1.40;;;6.70;99.90;;;;;;5066144;23;20414;-71
2022/09/27 07:06:23;;;;;;;4.40;1.60;;;6.70;99.90;;;;;;5066024;23;20166;-70
2022/09/27 07:08:27;;;;;;;2.73;1.90;;;6.70;99.90;;;;;;5065853;23;20154;-71
2022/09/27 07:10:32;;;;;;;3.07;1.60;;;6.70;99.90;;;;;;5065313;23;20382;-70
2022/09/27 07:12:35;;;;;;;2.70;1.23;;;6.50;99.90;;;;;;5040094;23;20984;-70
2022/09/27 07:14:36;;;;;;;2.03;1.30;;;6.40;99.90;;;;;;5066125;23;20925;-71
2022/09/27 07:16:37;;;;;;;0.90;0.77;;;6.20;99.90;;;;;;5065950;23;20509;-72
2022/09/27 07:18:38;;;;;;;1.53;0.90;;;6.20;99.90;;;;;;5066148;23;20158;-71
2022/09/27 07:20:38;;;;;;;1.73;1.20;;;6.30;99.90;;;;;;5065003;23;20902;-72
2022/09/27 07:22:44;;;;;;;2.60;1.23;;;6.30;99.90;;;;;;5040517;23;20478;-71
2022/09/27 07:24:44;;;;;;;2.60;1.00;;;6.30;99.90;;;;;;5066427;23;20165;-70
2022/09/27 07:26:46;;;;;;;0.90;0.70;;;6.40;99.90;;;;;;5066384;23;20747;-70
2022/09/27 07:28:47;;;;;;;2.50;0.80;;;6.60;99.90;;;;;;5066426;23;20604;-70
2022/09/27 07:30:47;;;;;;;1.30;1.20;;;6.70;99.90;;;;;;5065549;23;20386;-71
2022/09/27 07:32:49;;;;;;;1.50;1.20;;;6.70;99.90;;;;;;5040368;23;20202;-70
2022/09/27 07:34:49;;;;;;;2.07;1.77;;;6.90;99.90;;;;;;5041980;23;20267;-70
2022/09/27 07:36:50;;;;;;;2.40;1.07;;;7.00;99.90;;;;;;5041995;23;20418;-71
2022/09/27 07:38:50;;;;;;;1.30;1.07;;;7.10;99.90;;;;;;5040553;23;20175;-70
2022/09/27 07:40:51;;;;;;;2.57;1.00;;;7.10;99.90;;;;;;5041362;23;20203;-72
2022/09/27 07:42:56;;;;;;;1.23;1.07;;;7.30;99.90;;;;;;5041876;23;20179;-70
2022/09/27 07:44:57;;;;;;;2.40;1.30;;;7.50;99.90;;;;;;5042126;23;20470;-72
2022/09/27 07:46:57;;;;;;;2.53;1.27;;;7.50;99.90;;;;;;5041826;23;20387;-70
2022/09/27 07:48:58;;;;;;;3.23;1.40;;;7.50;99.90;;;;;;5041953;23;20817;-70
2022/09/27 07:50:59;;;;;;;1.00;0.90;;;7.60;99.90;;;;;;5041371;23;20176;-70
2022/09/27 07:52:59;;;;;;;1.23;1.13;;;7.80;99.90;;;;;;5031737;23;20698;-71
2022/09/27 07:55:00;;;;;;;3.07;1.03;;;7.50;99.90;;;;;;5020106;23;20334;-70
2022/09/27 07:57:02;;;;;;;1.23;1.00;;;7.70;99.90;;;;;;5024994;23;20169;-68
2022/09/27 07:59:03;;;;;;;1.23;1.13;;;7.70;99.90;;;;;;5024650;23;20164;-69
2022/09/27 08:01:03;;;;;;;3.37;1.13;;;7.70;99.90;;;;;;5023174;23;20513;-68
2022/09/27 08:03:10;;;;;;;1.83;1.23;;;7.70;99.90;;;;;;5034260;23;20672;-68
2022/09/27 08:05:12;;;;;;;1.70;1.03;;;7.70;99.90;;;;;;5038374;23;20278;-68
2022/09/27 08:07:13;;;;;;;1.97;1.10;;;7.50;99.90;;;;;;5041173;23;20479;-69
2022/09/27 08:09:13;;;;;;;1.50;1.40;;;7.30;99.90;;;;;;5041388;23;20725;-72
2022/09/27 08:11:16;;;;;;;1.43;1.10;;;7.30;99.90;;;;;;5040678;23;20389;-70
2022/09/27 08:13:19;;;;;;;1.37;1.10;;;7.10;99.90;;;;;;5041209;23;20616;-70
2022/09/27 08:15:19;;;;;;;1.80;1.27;;;7.10;99.90;;;;;;5041290;23;20470;-72
2022/09/27 08:17:20;;;;;;;1.37;1.20;;;7.20;99.90;;;;;;5039803;23;20403;-70
2022/09/27 08:19:21;;;;;;;2.27;1.17;;;7.20;99.90;;;;;;5041338;23;20724;-69
2022/09/27 08:21:22;;;;;;;2.00;1.30;;;7.00;99.90;;;;;;5040559;23;20242;-70
2022/09/27 08:23:23;;;;;;;2.00;1.27;;;7.00;99.90;;;;;;5041169;23;20735;-68
2022/09/27 08:25:24;;;;;;;2.50;1.50;;;6.90;99.90;;;;;;5039526;23;20159;-70
2022/09/27 08:27:24;;;;;;;2.80;1.70;;;6.90;99.90;;;;;;5041338;23;20502;-69
2022/09/27 08:29:25;;;;;;;2.40;1.57;;;6.90;99.90;;;;;;5041240;23;20220;-68
2022/09/27 08:31:25;;;;;;;3.97;1.40;;;7.00;99.90;;;;;;5038874;23;20684;-69
2022/09/27 08:33:26;;;;;;;4.30;1.60;;;7.20;99.90;;;;;;5053976;23;20739;-69
2022/09/27 08:35:28;;;;;;;2.20;1.40;;;7.20;99.90;;;;;;5067382;23;20662;-71
2022/09/27 08:37:28;;;;;;;3.20;2.30;;;7.30;99.90;;;;;;5041087;23;20656;-72
2022/09/27 08:39:30;;;;;;;2.20;1.50;;;7.20;99.90;;;;;;5068141;23;20418;-67
2022/09/27 08:41:38;;;;;;;1.80;1.43;;;7.20;99.90;;;;;;5067191;23;20147;-69
2022/09/27 08:43:46;;;;;;;2.83;1.50;;;7.10;99.90;;;;;;5067188;23;20397;-68
2022/09/27 08:46:25;;;;;;;3.07;1.47;;;7.00;99.90;;;;;;5067101;23;20397;-69
2022/09/27 08:48:28;;;;;;;2.73;1.40;;;7.10;99.90;;;;;;5066987;23;20381;-71
2022/09/27 08:50:34;;;;;;;6.00;1.50;;;7.30;99.90;;;;;;5065820;23;20378;-67
2022/09/27 08:52:42;;;;;;;3.57;1.93;;;7.50;99.90;;;;;;5066152;23;20914;-68
2022/09/27 08:54:45;;;;;;;2.00;1.53;;;7.40;99.90;;;;;;5041078;23;20876;-69
2022/09/27 08:56:48;;;;;;;2.63;1.40;;;7.40;99.90;;;;;;5066727;23;20482;-70
2022/09/27 08:58:55;;;;;;;3.30;1.43;;;7.70;99.90;;;;;;5066627;23;20417;-68
2022/09/27 09:00:59;;;;;;;3.60;1.60;;;7.90;99.90;;;;;;5065635;23;20457;-69
2022/09/27 09:03:01;;;;;;;3.10;1.67;;;8.10;99.90;;;;;;5066733;23;20401;-67
2022/09/27 09:05:14;;;;;;;3.20;2.13;;;8.10;99.90;;;;;;5066280;23;20251;-67
2022/09/27 09:07:34;;;;;;;4.53;1.57;;;8.40;99.90;;;;;;5066159;23;20153;-66
2022/09/27 09:12:45;;;;;;;3.23;2.10;;;8.50;99.90;;;;;;5066598;23;20153;-66
2022/09/27 09:12:57;;;;;;;4.07;2.60;;;8.70;99.60;;;;;;5066117;23;20197;-66
2022/09/27 09:15:11;;;;;;;2.00;1.50;;;8.90;99.90;;;;;;5066562;23;20210;-67
2022/09/27 09:17:35;;;;;;;2.00;1.43;;;9.30;99.90;;;;;;5066238;23;20154;-67
2022/09/27 09:20:02;;;;;;;3.43;1.20;;;9.00;99.90;;;;;;5050508;23;20221;-67
2022/09/27 09:22:47;;;;;;;1.80;1.33;;;9.00;99.90;;;;;;5065666;23;20178;-66
2022/09/27 09:24:57;;;;;;;3.43;1.37;;;8.50;99.90;;;;;;5036226;23;20173;-67
2022/09/27 09:27:41;;;;;;;4.00;2.70;;;8.50;99.90;;;;;;5065912;23;20146;-66
2022/09/27 09:30:00;;;;;;;3.60;1.93;;;8.30;99.90;;;;;;4968199;23;20168;-67
2022/09/27 09:32:15;;;;;;;0.83;0.83;;;8.30;99.90;;;;;;5039716;23;20180;-68
2022/09/27 09:34:24;;;;;;;3.87;1.50;;;8.50;99.90;;;;;;5040214;23;20187;-67
2022/09/27 09:36:39;;;;;;;0.90;0.90;;;8.70;99.80;;;;;;5041977;23;20479;-68
2022/09/27 09:38:49;;;;;;;10.33;5.53;;;8.80;98.70;;;;;;5042025;23;20154;-68
2022/09/27 09:41:01;;;;;;;2.70;2.00;;;8.90;99.20;;;;;;5041131;23;20183;-67
2022/09/27 09:43:09;;;;;;;4.47;1.27;;;9.00;98.10;;;;;;5041932;23;20181;-66
2022/09/27 09:45:18;;;;;;;1.87;1.03;;;8.70;99.30;;;;;;5042163;23;20147;-68
2022/09/27 09:47:21;;;;;;;2.93;1.17;;;8.70;98.70;;;;;;5041959;23;20168;-68
2022/09/27 09:49:32;;;;;;;0.63;0.60;;;8.80;99.70;;;;;;5040007;23;20170;-68
2022/09/27 09:51:42;;;;;;;0.57;0.57;;;8.70;99.50;;;;;;5041310;23;20155;-66
2022/09/27 09:53:56;;;;;;;1.23;1.13;;;8.80;98.70;;;;;;5039969;23;20680;-67
2022/09/27 09:56:19;;;;;;;0.60;0.60;;;9.00;98.80;;;;;;5042155;23;20217;-68
2022/09/27 09:58:28;;;;;;;1.33;0.87;;;8.70;98.40;;;;;;5042918;23;20155;-66
2022/09/27 10:00:29;;;;;;;1.27;0.70;;;8.70;98.10;;;;;;5040313;23;20266;-67
2022/09/27 10:02:34;;;;;;;1.37;0.70;;;8.40;98.50;;;;;;5042453;23;20179;-66
2022/09/27 10:04:35;;;;;;;0.80;0.80;;;8.50;98.70;;;;;;5042356;23;20162;-66
2022/09/27 10:06:35;;;;;;;1.57;0.60;;;8.90;98.10;;;;;;5042920;23;20169;-67
2022/09/27 10:08:36;;;;;;;1.07;1.00;;;9.30;96.60;;;;;;5042924;23;20166;-68
2022/09/27 10:10:37;;;;;;;1.33;0.80;;;9.90;96.30;;;;;;5042489;23;20167;-68
2022/09/27 10:12:37;;;;;;;1.23;0.70;;;9.90;96.00;;;;;;5043253;23;20179;-69
2022/09/27 10:14:39;;;;;;;0.60;0.60;;;10.50;95.50;;;;;;5043283;23;20170;-68
2022/09/27 10:16:46;;;;;;;2.27;0.87;;;11.10;91.70;;;;;;5043393;23;20170;-68
2022/09/27 10:18:49;;;;;;;1.00;0.83;;;11.00;88.40;;;;;;5043163;23;20147;-69
2022/09/27 10:20:56;;;;;;;0.70;0.70;;;10.60;90.00;;;;;;5042806;23;20190;-68
2022/09/27 10:23:04;;;;;;;1.43;0.80;;;10.40;91.70;;;;;;5043191;23;20202;-70
2022/09/27 10:25:07;;;;;;;1.07;0.97;;;10.10;90.80;;;;;;5040987;23;20186;-70
2022/09/27 10:27:07;;;;;;;1.40;0.80;;;10.30;92.40;;;;;;5041122;23;20233;-69
2022/09/27 10:29:28;;;;;;;0.70;0.70;;;11.10;87.90;;;;;;5042497;23;20170;-70
2022/09/27 10:31:35;;;;;;;1.33;0.90;;;11.60;83.40;;;;;;5042374;23;20171;-70
2022/09/27 10:33:38;;;;;;;0.70;0.70;;;11.80;81.10;;;;;;5057843;23;20244;-71
2022/09/27 10:35:43;;;;;;;2.10;1.33;;;11.60;85.40;;;;;;5066832;23;20514;-69
2022/09/27 10:37:44;;;;;;;1.60;0.80;;;11.70;80.20;;;;;;5065874;23;20218;-69
2022/09/27 10:39:46;;;;;;;0.63;0.63;;;11.50;81.50;;;;;;5068338;23;20194;-69
2022/09/27 10:41:47;;;;;;;1.27;0.97;;;10.80;84.50;;;;;;5066599;23;20161;-69
2022/09/27 10:43:48;;;;;;;0.83;0.80;;;12.00;84.20;;;;;;5067155;23;20155;-70
2022/09/27 10:45:49;;;;;;;1.87;1.10;;;13.10;74.70;;;;;;5066479;23;20189;-69
2022/09/27 10:47:49;;;;;;;1.00;0.90;;;13.30;72.60;;;;;;5066039;23;20159;-68
2022/09/27 10:49:53;;;;;;;1.50;1.20;;;13.80;72.30;;;;;;5038114;23;20531;-69
2022/09/27 10:51:59;;;;;;;2.07;1.30;;;12.60;70.50;;;;;;5065306;23;20165;-69
2022/09/27 10:54:00;;;;;;;3.90;1.33;;;12.50;77.60;;;;;;5065194;23;20302;-69
2022/09/27 10:56:01;;;;;;;5.27;2.13;;;12.10;80.00;;;;;;5065645;23;20170;-69
2022/09/27 10:58:03;;;;;;;3.03;1.30;;;11.10;79.40;;;;;;5065578;23;20166;-68
2022/09/27 11:00:07;;;;;;;2.07;1.60;;;10.50;86.90;;;;;;5065424;23;20182;-69
2022/09/27 11:02:27;;;;;;;1.00;0.90;;;10.40;87.20;;;;;;5038917;23;20291;-67
2022/09/27 11:04:34;;;;;;;1.80;0.90;;;10.50;88.40;;;;;;5065668;23;20146;-68
2022/09/27 11:06:37;;;;;;;3.67;1.50;;;10.70;91.20;;;;;;5039621;23;20273;-70
2022/09/27 11:08:37;;;;;;;2.90;1.10;;;11.00;84.90;;;;;;5065436;23;20489;-70